createdAt,value
2023-05-29T00:01:41.995Z,70.90
2023-05-29T00:04:13.876Z,71.29
2023-05-29T00:06:45.547Z,71.26
2023-05-29T00:09:16.339Z,71.31
2023-05-29T00:11:51.765Z,71.37
2023-05-29T00:14:25.031Z,71.38
2023-05-29T00:16:57.904Z,71.42
2023-05-29T00:19:29.882Z,71.69
2023-05-29T00:22:01.407Z,71.82
2023-05-29T00:24:32.984Z,71.72
2023-05-29T00:27:03.248Z,71.65
2023-05-29T00:29:34.825Z,71.87
2023-05-29T00:32:08.056Z,71.87
2023-05-29T00:34:39.828Z,71.88
2023-05-29T00:37:09.981Z,71.88
2023-05-29T00:39:41.633Z,72.35
2023-05-29T00:42:13.225Z,72.17
2023-05-29T00:44:43.329Z,72.02
2023-05-29T00:47:15.795Z,72.16
2023-05-29T00:49:47.941Z,72.22
2023-05-29T00:52:19.985Z,72.04
2023-05-29T00:54:51.667Z,72.23
2023-05-29T00:57:22.555Z,72.21
2023-05-29T00:59:54.167Z,72.62
2023-05-29T01:02:25.020Z,72.63
2023-05-29T01:04:56.749Z,72.86
2023-05-29T01:07:28.510Z,72.71
2023-05-29T01:10:00.068Z,72.74
2023-05-29T01:12:42.663Z,72.65
2023-05-29T01:15:28.200Z,72.78
2023-05-29T01:18:13.034Z,73.00
2023-05-29T01:20:49.720Z,72.90
2023-05-29T01:23:38.620Z,72.98
2023-05-29T01:26:27.753Z,72.96
2023-05-29T01:29:02.654Z,73.03
2023-05-29T01:31:35.192Z,73.18
2023-05-29T01:34:06.825Z,73.15
2023-05-29T01:36:37.311Z,73.18
2023-05-29T01:39:10.204Z,73.16
2023-05-29T01:41:42.787Z,73.12
2023-05-29T01:44:15.229Z,73.01
2023-05-29T01:46:47.542Z,73.08
2023-05-29T01:49:20.217Z,73.27
2023-05-29T01:51:51.834Z,73.29
2023-05-29T01:54:23.788Z,73.30
2023-05-29T01:56:56.287Z,73.64
2023-05-29T01:59:28.543Z,73.58
2023-05-29T02:02:00.044Z,73.78
2023-05-29T02:04:31.605Z,73.72
2023-05-29T02:07:01.720Z,73.61
2023-05-29T02:09:33.271Z,73.72
2023-05-29T02:12:05.043Z,73.88
2023-05-29T02:14:37.941Z,73.81
2023-05-29T02:17:10.335Z,73.86
2023-05-29T02:19:41.993Z,73.69
2023-05-29T02:22:14.261Z,73.79
2023-05-29T02:24:45.793Z,73.93
2023-05-29T02:27:15.970Z,73.92
2023-05-29T02:29:47.575Z,74.04
2023-05-29T02:32:19.442Z,74.17
2023-05-29T02:34:50.596Z,74.25
2023-05-29T02:37:26.362Z,74.49
2023-05-29T02:39:57.906Z,74.35
2023-05-29T02:42:28.012Z,74.38
2023-05-29T02:44:59.546Z,74.69
2023-05-29T02:47:31.305Z,74.59
2023-05-29T02:50:03.507Z,74.60
2023-05-29T02:52:37.709Z,74.50
2023-05-29T02:55:11.368Z,74.66
2023-05-29T02:57:42.933Z,74.67
2023-05-29T03:00:14.998Z,74.89
2023-05-29T03:02:46.991Z,75.10
2023-05-29T03:05:18.744Z,74.97
2023-05-29T03:07:48.872Z,75.04
2023-05-29T03:10:20.515Z,75.28
2023-05-29T03:12:50.667Z,75.21
2023-05-29T03:15:22.301Z,75.34
2023-05-29T03:17:54.094Z,75.40
2023-05-29T03:20:30.184Z,75.32
2023-05-29T03:23:02.969Z,75.18
2023-05-29T03:25:34.891Z,75.71
2023-05-29T03:28:04.980Z,75.86
2023-05-29T03:30:37.094Z,76.02
2023-05-29T03:33:08.771Z,75.66
2023-05-29T03:36:00.246Z,75.67
2023-05-29T03:38:32.107Z,75.69
2023-05-29T03:41:04.306Z,75.40
2023-05-29T03:43:34.453Z,74.98
2023-05-29T03:46:06.358Z,74.56
2023-05-29T03:48:39.344Z,73.92
2023-05-29T03:51:09.439Z,73.05
2023-05-29T03:53:42.028Z,72.52
2023-05-29T03:56:13.872Z,72.26
2023-05-29T03:58:45.672Z,72.10
2023-05-29T04:01:18.082Z,72.01
2023-05-29T04:03:48.214Z,71.44
2023-05-29T04:06:19.932Z,71.21
2023-05-29T04:08:50.068Z,70.85
2023-05-29T04:11:23.323Z,70.41
2023-05-29T04:13:54.926Z,69.78
2023-05-29T04:16:26.576Z,69.63
2023-05-29T04:18:58.260Z,69.36
2023-05-29T04:21:33.709Z,68.72
2023-05-29T04:24:06.601Z,67.94
2023-05-29T04:26:42.131Z,67.58
2023-05-29T04:29:15.067Z,67.33
2023-05-29T04:31:48.233Z,67.04
2023-05-29T04:34:21.214Z,66.43
2023-05-29T04:36:52.866Z,66.04
2023-05-29T04:39:24.393Z,65.85
2023-05-29T04:41:59.685Z,65.41
2023-05-29T04:44:34.084Z,64.95
2023-05-29T04:47:07.479Z,64.89
2023-05-29T04:49:40.118Z,64.43
2023-05-29T04:52:13.037Z,63.72
2023-05-29T04:54:44.994Z,63.16
2023-05-29T04:57:18.160Z,62.77
2023-05-29T04:59:49.692Z,62.34
2023-05-29T05:02:21.270Z,61.95
2023-05-29T05:04:52.888Z,61.07
2023-05-29T05:07:24.542Z,60.22
2023-05-29T05:09:56.688Z,59.25
2023-05-29T05:12:31.156Z,58.58
2023-05-29T05:15:02.893Z,58.10
2023-05-29T05:17:35.186Z,57.97
2023-05-29T05:20:09.661Z,57.51
2023-05-29T05:22:41.892Z,56.56
2023-05-29T05:25:13.900Z,56.01
2023-05-29T05:27:46.042Z,55.08
2023-05-29T05:30:18.489Z,54.08
2023-05-29T05:32:50.297Z,53.00
2023-05-29T05:35:22.495Z,52.15
2023-05-29T05:37:54.208Z,52.09
2023-05-29T05:40:27.701Z,51.33
2023-05-29T05:43:04.450Z,50.42
2023-05-29T05:45:56.133Z,49.49
2023-05-29T05:48:28.142Z,48.72
2023-05-29T05:51:00.036Z,47.20
2023-05-29T05:53:31.793Z,46.76
2023-05-29T05:56:03.437Z,45.81
2023-05-29T05:58:35.192Z,44.87
2023-05-29T06:01:08.625Z,43.95
2023-05-29T06:03:40.603Z,43.18
2023-05-29T06:06:14.067Z,43.02
2023-05-29T06:08:48.746Z,42.46
2023-05-29T06:11:20.896Z,40.37
2023-05-29T06:13:53.625Z,39.06
2023-05-29T06:16:28.902Z,38.98
2023-05-29T06:19:00.742Z,38.26
2023-05-29T06:21:33.809Z,38.14
2023-05-29T06:24:07.882Z,37.96
2023-05-29T06:26:39.620Z,37.28
2023-05-29T06:29:11.932Z,36.91
2023-05-29T06:31:44.865Z,37.18
2023-05-29T06:34:17.492Z,37.72
2023-05-29T06:36:49.109Z,37.65
2023-05-29T06:39:21.155Z,37.40
2023-05-29T06:41:52.778Z,37.77
2023-05-29T06:44:24.268Z,38.31
2023-05-29T06:46:55.887Z,37.77
2023-05-29T06:49:27.554Z,36.20
2023-05-29T06:51:59.051Z,36.13
2023-05-29T06:54:50.566Z,37.20
2023-05-29T06:57:22.230Z,36.76
2023-05-29T06:59:53.966Z,36.15
2023-05-29T07:02:25.646Z,36.09
2023-05-29T07:04:59.851Z,36.45
2023-05-29T07:07:31.840Z,36.67
2023-05-29T07:10:03.540Z,36.84
2023-05-29T07:12:35.334Z,36.85
2023-05-29T07:15:09.999Z,36.53
2023-05-29T07:17:45.705Z,36.81
2023-05-29T07:20:24.434Z,35.74
2023-05-29T07:22:56.085Z,35.70
2023-05-29T07:25:27.831Z,35.86
2023-05-29T07:28:10.678Z,36.68
2023-05-29T07:30:52.313Z,37.73
2023-05-29T07:33:23.943Z,37.08
2023-05-29T07:35:59.913Z,37.32
2023-05-29T07:38:33.021Z,37.40
2023-05-29T07:41:04.847Z,37.82
2023-05-29T07:43:38.542Z,38.51
2023-05-29T07:46:11.968Z,38.64
2023-05-29T07:48:46.936Z,38.93
2023-05-29T07:51:18.717Z,39.34
2023-05-29T07:53:51.645Z,39.82
2023-05-29T07:56:23.540Z,39.71
2023-05-29T07:58:55.960Z,39.50
2023-05-29T08:01:28.223Z,39.40
2023-05-29T08:04:00.317Z,39.19
2023-05-29T08:06:35.775Z,39.51
2023-05-29T08:09:07.801Z,39.94
2023-05-29T08:11:39.577Z,39.88
2023-05-29T08:14:11.124Z,39.28
2023-05-29T08:16:44.307Z,39.49
2023-05-29T08:19:16.406Z,40.05
2023-05-29T08:21:48.116Z,39.69
2023-05-29T08:24:21.133Z,38.83
2023-05-29T08:26:53.009Z,38.79
2023-05-29T08:29:24.718Z,38.74
2023-05-29T08:31:56.394Z,39.20
2023-05-29T08:34:28.094Z,39.12
2023-05-29T08:36:59.619Z,38.81
2023-05-29T08:39:31.245Z,39.16
2023-05-29T08:42:09.520Z,39.45
2023-05-29T08:44:42.887Z,39.62
2023-05-29T08:47:19.278Z,39.11
2023-05-29T08:49:54.952Z,39.36
2023-05-29T08:52:27.806Z,39.32
2023-05-29T08:55:01.606Z,39.65
2023-05-29T08:57:34.635Z,39.81
2023-05-29T09:00:10.827Z,38.82
2023-05-29T09:02:42.635Z,38.30
2023-05-29T09:05:15.891Z,38.33
2023-05-29T09:07:48.094Z,38.61
2023-05-29T09:10:19.850Z,38.54
2023-05-29T09:12:52.407Z,37.89
2023-05-29T09:15:25.857Z,37.50
2023-05-29T09:17:59.321Z,37.73
2023-05-29T09:20:31.370Z,37.75
2023-05-29T09:23:05.426Z,37.07
2023-05-29T09:25:41.386Z,37.62
2023-05-29T09:28:14.177Z,37.43
2023-05-29T09:30:48.531Z,37.45
2023-05-29T09:33:22.107Z,36.89
2023-05-29T09:35:54.700Z,36.84
2023-05-29T09:38:38.427Z,37.57
2023-05-29T09:41:24.799Z,37.58
2023-05-29T09:43:57.228Z,37.36
2023-05-29T09:46:29.717Z,36.51
2023-05-29T09:49:05.050Z,36.11
2023-05-29T09:51:37.728Z,36.86
2023-05-29T09:54:19.596Z,36.17
2023-05-29T09:56:52.412Z,36.40
2023-05-29T09:59:27.230Z,37.02
2023-05-29T10:02:05.154Z,37.18
2023-05-29T10:04:38.127Z,37.16
2023-05-29T10:07:14.805Z,36.85
2023-05-29T10:09:51.709Z,36.74
2023-05-29T10:12:24.651Z,37.00
2023-05-29T10:14:59.184Z,37.23
2023-05-29T10:17:36.862Z,36.71
2023-05-29T10:20:12.031Z,37.13
2023-05-29T10:22:48.958Z,36.87
2023-05-29T10:25:22.604Z,36.58
2023-05-29T10:27:55.304Z,36.60
2023-05-29T10:30:36.764Z,36.11
2023-05-29T10:33:23.973Z,35.57
2023-05-29T10:36:03.365Z,35.56
2023-05-29T10:38:35.897Z,35.01
2023-05-29T10:41:40.720Z,34.69
2023-05-29T10:44:39.760Z,34.80
2023-05-29T10:47:13.657Z,35.56
2023-05-29T10:49:54.591Z,35.70
2023-05-29T10:52:26.372Z,36.04
2023-05-29T10:54:59.077Z,34.90
2023-05-29T10:57:37.065Z,34.70
2023-05-29T11:00:24.440Z,35.09
2023-05-29T11:02:56.412Z,35.08
2023-05-29T11:05:28.865Z,35.15
2023-05-29T11:08:04.430Z,35.24
2023-05-29T11:10:59.759Z,35.00
2023-05-29T11:13:38.973Z,34.88
2023-05-29T11:16:38.048Z,35.14
2023-05-29T11:19:12.087Z,34.86
2023-05-29T11:21:58.909Z,34.99
2023-05-29T11:24:31.428Z,35.88
2023-05-29T11:27:07.545Z,35.03
2023-05-29T11:29:40.201Z,35.65
2023-05-29T11:32:18.698Z,35.62
2023-05-29T11:34:54.257Z,35.14
2023-05-29T11:37:27.173Z,34.86
2023-05-29T11:39:59.113Z,34.29
2023-05-29T11:42:31.020Z,34.56
2023-05-29T11:45:18.052Z,34.67
2023-05-29T11:48:00.648Z,34.73
2023-05-29T11:50:38.488Z,35.11
2023-05-29T11:53:11.356Z,34.23
2023-05-29T11:55:47.319Z,34.71
2023-05-29T11:58:19.525Z,34.90
2023-05-29T12:00:53.718Z,35.01
2023-05-29T12:03:26.281Z,35.07
2023-05-29T12:05:58.755Z,35.84
2023-05-29T12:08:31.730Z,35.86
2023-05-29T12:11:04.319Z,35.00
2023-05-29T12:13:43.514Z,34.54
2023-05-29T12:16:16.712Z,34.69
2023-05-29T12:18:49.302Z,34.70
2023-05-29T12:21:22.195Z,35.02
2023-05-29T12:24:03.176Z,34.79
2023-05-29T12:26:48.418Z,34.51
2023-05-29T12:29:20.268Z,34.55
2023-05-29T12:32:02.188Z,34.53
2023-05-29T12:34:40.624Z,34.16
2023-05-29T12:37:15.192Z,34.54
2023-05-29T12:39:47.100Z,34.46
2023-05-29T12:42:20.336Z,34.40
2023-05-29T12:44:52.184Z,34.16
2023-05-29T12:47:28.262Z,34.31
2023-05-29T12:50:00.029Z,33.74
2023-05-29T12:52:31.964Z,33.47
2023-05-29T12:55:04.043Z,32.89
2023-05-29T12:57:36.251Z,33.12
2023-05-29T13:00:12.890Z,33.57
2023-05-29T13:02:44.787Z,33.28
2023-05-29T13:05:19.998Z,33.16
2023-05-29T13:07:52.670Z,33.66
2023-05-29T13:10:26.722Z,34.53
2023-05-29T13:13:00.409Z,34.84
2023-05-29T13:15:34.139Z,34.58
2023-05-29T13:18:07.044Z,34.08
2023-05-29T13:20:41.058Z,33.61
2023-05-29T13:23:13.257Z,34.34
2023-05-29T13:25:45.336Z,34.43
2023-05-29T13:28:17.496Z,34.10
2023-05-29T13:30:50.256Z,34.21
2023-05-29T13:33:22.415Z,34.18
2023-05-29T13:35:55.862Z,33.24
2023-05-29T13:38:29.335Z,33.45
2023-05-29T13:41:02.904Z,33.68
2023-05-29T13:43:43.693Z,33.76
2023-05-29T13:46:17.034Z,34.18
2023-05-29T13:48:48.803Z,34.52
2023-05-29T13:51:20.504Z,34.47
2023-05-29T13:53:52.226Z,34.10
2023-05-29T13:56:24.049Z,34.11
2023-05-29T13:58:55.941Z,34.15
2023-05-29T14:01:28.151Z,34.22
2023-05-29T14:04:00.131Z,33.96
2023-05-29T14:06:33.414Z,33.49
2023-05-29T14:09:05.901Z,33.33
2023-05-29T14:11:38.205Z,33.23
2023-05-29T14:14:11.107Z,33.20
2023-05-29T14:16:42.974Z,32.58
2023-05-29T14:19:15.007Z,32.97
2023-05-29T14:21:47.206Z,33.58
2023-05-29T14:24:19.276Z,33.13
2023-05-29T14:26:51.947Z,32.88
2023-05-29T14:29:23.623Z,33.01
2023-05-29T14:31:55.434Z,32.46
2023-05-29T14:34:27.694Z,32.80
2023-05-29T14:37:01.656Z,32.73
2023-05-29T14:39:34.043Z,32.96
2023-05-29T14:42:07.859Z,32.88
2023-05-29T14:44:43.183Z,33.08
2023-05-29T14:47:15.820Z,33.29
2023-05-29T14:49:48.159Z,33.87
2023-05-29T14:52:20.726Z,33.45
2023-05-29T14:54:56.041Z,33.61
2023-05-29T14:57:28.432Z,33.42
2023-05-29T15:00:01.114Z,33.25
2023-05-29T15:02:33.879Z,33.20
2023-05-29T15:05:11.307Z,33.28
2023-05-29T15:07:50.788Z,32.85
2023-05-29T15:10:27.949Z,32.25
2023-05-29T15:13:09.653Z,32.82
2023-05-29T15:15:48.585Z,32.43
2023-05-29T15:18:31.449Z,32.69
2023-05-29T15:21:04.541Z,32.48
2023-05-29T15:23:45.110Z,32.61
2023-05-29T15:26:29.167Z,32.62
2023-05-29T15:29:01.452Z,32.40
2023-05-29T15:31:35.500Z,32.28
2023-05-29T15:34:12.535Z,32.37
2023-05-29T15:36:49.577Z,32.25
2023-05-29T15:39:22.223Z,31.97
2023-05-29T15:41:55.385Z,31.57
2023-05-29T15:44:31.766Z,31.72
2023-05-29T15:47:07.621Z,31.42
2023-05-29T15:49:46.022Z,31.63
2023-05-29T15:52:22.541Z,31.83
2023-05-29T15:55:09.064Z,31.81
2023-05-29T15:57:42.688Z,31.89
2023-05-29T16:00:17.043Z,32.18
2023-05-29T16:02:54.364Z,32.25
2023-05-29T16:05:38.163Z,32.43
2023-05-29T16:08:13.505Z,32.44
2023-05-29T16:10:48.611Z,32.38
2023-05-29T16:13:21.702Z,31.99
2023-05-29T16:15:53.649Z,31.92
2023-05-29T16:18:31.861Z,31.81
2023-05-29T16:21:03.830Z,31.77
2023-05-29T16:23:35.990Z,31.75
2023-05-29T16:26:08.375Z,31.77
2023-05-29T16:28:42.578Z,31.70
2023-05-29T16:31:14.807Z,31.55
2023-05-29T16:33:46.851Z,31.75
2023-05-29T16:36:20.050Z,31.93
2023-05-29T16:38:52.284Z,31.98
2023-05-29T16:41:24.208Z,31.75
2023-05-29T16:43:56.397Z,31.99
2023-05-29T16:46:28.644Z,32.28
2023-05-29T16:49:00.528Z,32.67
2023-05-29T16:51:32.310Z,32.89
2023-05-29T16:54:04.251Z,33.17
2023-05-29T16:56:36.300Z,33.16
2023-05-29T16:59:08.294Z,33.07
2023-05-29T17:01:40.480Z,33.04
2023-05-29T17:04:12.567Z,33.00
2023-05-29T17:06:46.709Z,32.81
2023-05-29T17:09:19.159Z,32.66
2023-05-29T17:11:53.491Z,32.77
2023-05-29T17:14:27.652Z,32.60
2023-05-29T17:17:04.016Z,32.90
2023-05-29T17:19:39.821Z,32.98
2023-05-29T17:22:15.835Z,33.02
2023-05-29T17:24:48.226Z,33.32
2023-05-29T17:27:23.225Z,33.28
2023-05-29T17:29:56.071Z,33.63
2023-05-29T17:32:28.062Z,33.72
2023-05-29T17:35:03.960Z,33.84
2023-05-29T17:37:39.189Z,34.22
2023-05-29T17:40:18.694Z,34.48
2023-05-29T17:42:54.753Z,34.76
2023-05-29T17:45:32.809Z,34.95
2023-05-29T17:48:05.442Z,35.13
2023-05-29T17:50:40.142Z,35.62
2023-05-29T17:53:15.247Z,36.28
2023-05-29T17:55:48.231Z,37.10
2023-05-29T17:58:32.021Z,38.36
2023-05-29T18:01:04.864Z,40.15
2023-05-29T18:03:37.842Z,41.11
2023-05-29T18:06:10.574Z,41.17
2023-05-29T18:08:46.126Z,41.46
2023-05-29T18:11:20.988Z,41.69
2023-05-29T18:14:09.090Z,42.38
2023-05-29T18:16:48.310Z,42.72
2023-05-29T18:19:22.023Z,43.31
2023-05-29T18:21:54.415Z,43.96
2023-05-29T18:24:27.567Z,43.79
2023-05-29T18:26:59.519Z,44.33
2023-05-29T18:29:33.497Z,44.29
2023-05-29T18:32:07.276Z,44.25
2023-05-29T18:34:39.988Z,44.63
2023-05-29T18:37:13.311Z,45.21
2023-05-29T18:39:52.516Z,45.74
2023-05-29T18:42:27.691Z,45.88
2023-05-29T18:45:16.056Z,45.98
2023-05-29T18:47:54.312Z,46.34
2023-05-29T18:50:31.081Z,46.95
2023-05-29T18:53:13.804Z,46.98
2023-05-29T18:55:49.587Z,47.61
2023-05-29T18:58:22.307Z,48.13
2023-05-29T19:01:01.936Z,48.71
2023-05-29T19:03:54.920Z,48.67
2023-05-29T19:06:29.915Z,48.80
2023-05-29T19:09:03.676Z,49.04
2023-05-29T19:11:38.442Z,49.68
2023-05-29T19:14:11.878Z,50.05
2023-05-29T19:16:47.435Z,49.96
2023-05-29T19:19:23.722Z,50.66
2023-05-29T19:22:01.580Z,51.14
2023-05-29T19:24:35.951Z,51.22
2023-05-29T19:27:17.774Z,51.67
2023-05-29T19:29:54.136Z,52.04
2023-05-29T19:32:28.380Z,52.02
2023-05-29T19:35:01.012Z,52.21
2023-05-29T19:37:38.993Z,52.51
2023-05-29T19:40:13.795Z,52.73
2023-05-29T19:42:48.834Z,52.97
2023-05-29T19:45:23.633Z,53.26
2023-05-29T19:48:05.039Z,53.44
2023-05-29T19:50:44.734Z,53.30
2023-05-29T19:53:19.694Z,53.70
2023-05-29T19:55:52.461Z,54.01
2023-05-29T19:58:26.063Z,53.86
2023-05-29T20:00:59.534Z,54.15
2023-05-29T20:03:35.307Z,54.12
2023-05-29T20:06:08.670Z,54.67
2023-05-29T20:08:43.765Z,55.05
2023-05-29T20:11:23.049Z,55.13
2023-05-29T20:14:01.404Z,55.67
2023-05-29T20:16:42.215Z,55.88
2023-05-29T20:19:24.160Z,55.96
2023-05-29T20:22:00.144Z,56.35
2023-05-29T20:24:33.015Z,56.72
2023-05-29T20:27:07.491Z,57.01
2023-05-29T20:29:39.757Z,57.27
2023-05-29T20:32:11.917Z,57.30
2023-05-29T20:34:52.822Z,57.70
2023-05-29T20:37:25.290Z,57.96
2023-05-29T20:39:57.274Z,58.00
2023-05-29T20:42:35.253Z,57.84
2023-05-29T20:45:08.858Z,58.15
2023-05-29T20:47:41.282Z,58.37
2023-05-29T20:50:16.887Z,58.22
2023-05-29T20:52:50.088Z,58.65
2023-05-29T20:55:23.307Z,58.99
2023-05-29T20:58:00.557Z,59.33
2023-05-29T21:00:34.429Z,59.54
2023-05-29T21:03:06.844Z,59.49
2023-05-29T21:05:41.725Z,59.60
2023-05-29T21:08:15.958Z,59.83
2023-05-29T21:10:47.745Z,59.72
2023-05-29T21:13:22.375Z,59.84
2023-05-29T21:15:55.200Z,60.02
2023-05-29T21:18:27.110Z,60.39
2023-05-29T21:20:59.114Z,60.73
2023-05-29T21:23:31.268Z,60.65
2023-05-29T21:26:04.467Z,60.84
2023-05-29T21:28:38.160Z,61.05
2023-05-29T21:31:10.161Z,61.43
2023-05-29T21:33:43.300Z,61.36
2023-05-29T21:36:14.921Z,61.20
2023-05-29T21:38:49.316Z,61.41
2023-05-29T21:41:21.219Z,61.69
2023-05-29T21:43:54.111Z,61.63
2023-05-29T21:46:25.805Z,61.91
2023-05-29T21:48:57.535Z,62.22
2023-05-29T21:51:31.244Z,62.65
2023-05-29T21:54:02.957Z,62.88
2023-05-29T21:56:34.566Z,62.78
2023-05-29T21:59:07.082Z,62.94
2023-05-29T22:01:39.068Z,63.18
2023-05-29T22:04:11.271Z,63.64
2023-05-29T22:06:44.033Z,63.80
2023-05-29T22:09:16.105Z,63.85
2023-05-29T22:11:49.362Z,64.09
2023-05-29T22:14:21.499Z,63.97
2023-05-29T22:16:54.910Z,64.31
2023-05-29T22:19:26.778Z,64.65
2023-05-29T22:21:58.350Z,65.03
2023-05-29T22:24:30.028Z,65.16
2023-05-29T22:27:01.846Z,65.02
2023-05-29T22:29:33.397Z,65.28
2023-05-29T22:32:05.824Z,65.65
2023-05-29T22:34:38.328Z,65.81
2023-05-29T22:37:10.345Z,66.06
2023-05-29T22:39:42.325Z,66.21
2023-05-29T22:42:14.267Z,66.31
2023-05-29T22:44:46.027Z,66.33
2023-05-29T22:47:19.085Z,66.66
2023-05-29T22:49:51.021Z,66.51
2023-05-29T22:52:22.891Z,66.47
2023-05-29T22:54:55.345Z,66.37
2023-05-29T22:57:26.978Z,66.57
2023-05-29T22:59:58.578Z,66.65
2023-05-29T23:02:30.700Z,66.82
2023-05-29T23:05:02.785Z,67.11
2023-05-29T23:07:34.902Z,67.30
2023-05-29T23:10:07.121Z,67.18
2023-05-29T23:12:38.984Z,67.65
2023-05-29T23:15:13.709Z,67.78
2023-05-29T23:17:45.678Z,67.70
2023-05-29T23:20:19.798Z,67.74
2023-05-29T23:22:51.558Z,67.77
2023-05-29T23:25:23.191Z,67.92
2023-05-29T23:27:54.825Z,68.06
2023-05-29T23:30:26.486Z,68.37
2023-05-29T23:32:58.120Z,68.27
2023-05-29T23:35:29.756Z,68.21
2023-05-29T23:38:02.039Z,68.33
2023-05-29T23:40:33.557Z,68.61
2023-05-29T23:43:05.215Z,68.82
2023-05-29T23:45:36.776Z,69.05
2023-05-29T23:48:07.088Z,68.98
2023-05-29T23:50:39.393Z,69.06
2023-05-29T23:53:11.569Z,69.23
2023-05-29T23:55:43.284Z,69.51
2023-05-29T23:58:14.838Z,69.37
